sensor_id;sensor_type;location;lat;lon;timestamp;P1;durP1;ratioP1;P2;durP2;ratioP2
55815;SDS011;41744;52.404;16.942;2023-11-19T00:00:38;53.03;;;19.37;;
55815;SDS011;41744;52.404;16.942;2023-11-19T00:03:04;53.50;;;18.73;;
55815;SDS011;41744;52.404;16.942;2023-11-19T00:05:30;49.53;;;17.80;;
55815;SDS011;41744;52.404;16.942;2023-11-19T00:07:57;52.63;;;18.77;;
55815;SDS011;41744;52.404;16.942;2023-11-19T00:10:23;56.60;;;18.77;;
55815;SDS011;41744;52.404;16.942;2023-11-19T00:12:49;56.70;;;19.67;;
55815;SDS011;41744;52.404;16.942;2023-11-19T00:15:15;54.13;;;18.97;;
55815;SDS011;41744;52.404;16.942;2023-11-19T00:17:46;53.70;;;18.30;;
55815;SDS011;41744;52.404;16.942;2023-11-19T00:20:13;56.13;;;19.50;;
55815;SDS011;41744;52.404;16.942;2023-11-19T00:22:39;53.70;;;17.90;;
55815;SDS011;41744;52.404;16.942;2023-11-19T00:25:06;51.63;;;18.37;;
55815;SDS011;41744;52.404;16.942;2023-11-19T00:27:32;52.83;;;19.53;;
55815;SDS011;41744;52.404;16.942;2023-11-19T00:29:59;54.17;;;19.47;;
55815;SDS011;41744;52.404;16.942;2023-11-19T00:32:25;50.47;;;17.83;;
55815;SDS011;41744;52.404;16.942;2023-11-19T00:34:51;56.57;;;19.57;;
55815;SDS011;41744;52.404;16.942;2023-11-19T00:37:17;60.17;;;20.20;;
55815;SDS011;41744;52.404;16.942;2023-11-19T00:39:43;54.40;;;19.27;;
55815;SDS011;41744;52.404;16.942;2023-11-19T00:42:10;56.83;;;19.33;;
55815;SDS011;41744;52.404;16.942;2023-11-19T00:44:36;60.27;;;19.50;;
55815;SDS011;41744;52.404;16.942;2023-11-19T00:47:03;63.37;;;20.63;;
55815;SDS011;41744;52.404;16.942;2023-11-19T00:49:30;56.33;;;20.50;;
55815;SDS011;41744;52.404;16.942;2023-11-19T00:51:57;64.67;;;21.50;;
55815;SDS011;41744;52.404;16.942;2023-11-19T00:54:24;57.53;;;20.37;;
55815;SDS011;41744;52.404;16.942;2023-11-19T00:56:51;62.00;;;20.50;;
55815;SDS011;41744;52.404;16.942;2023-11-19T00:59:17;61.47;;;21.63;;
55815;SDS011;41744;52.404;16.942;2023-11-19T01:01:43;59.37;;;20.50;;
55815;SDS011;41744;52.404;16.942;2023-11-19T01:04:09;57.67;;;20.53;;
55815;SDS011;41744;52.404;16.942;2023-11-19T01:06:36;64.10;;;20.80;;
55815;SDS011;41744;52.404;16.942;2023-11-19T01:09:02;65.57;;;21.70;;
55815;SDS011;41744;52.404;16.942;2023-11-19T01:11:28;60.07;;;21.63;;
55815;SDS011;41744;52.404;16.942;2023-11-19T01:13:54;59.53;;;21.03;;
55815;SDS011;41744;52.404;16.942;2023-11-19T01:16:20;57.40;;;21.37;;
55815;SDS011;41744;52.404;16.942;2023-11-19T01:18:47;54.77;;;20.23;;
55815;SDS011;41744;52.404;16.942;2023-11-19T01:21:13;53.90;;;20.50;;
55815;SDS011;41744;52.404;16.942;2023-11-19T01:23:40;60.87;;;20.87;;
55815;SDS011;41744;52.404;16.942;2023-11-19T01:26:08;56.93;;;21.33;;
55815;SDS011;41744;52.404;16.942;2023-11-19T01:28:35;53.33;;;19.20;;
55815;SDS011;41744;52.404;16.942;2023-11-19T01:31:01;62.33;;;20.30;;
55815;SDS011;41744;52.404;16.942;2023-11-19T01:33:28;59.63;;;20.47;;
55815;SDS011;41744;52.404;16.942;2023-11-19T01:35:54;52.90;;;18.47;;
55815;SDS011;41744;52.404;16.942;2023-11-19T01:38:23;52.73;;;19.67;;
55815;SDS011;41744;52.404;16.942;2023-11-19T01:40:49;63.00;;;20.90;;
55815;SDS011;41744;52.404;16.942;2023-11-19T01:46:00;59.70;;;20.40;;
55815;SDS011;41744;52.404;16.942;2023-11-19T01:48:27;59.27;;;19.63;;
55815;SDS011;41744;52.404;16.942;2023-11-19T01:50:53;53.37;;;19.70;;
55815;SDS011;41744;52.404;16.942;2023-11-19T01:53:19;57.47;;;19.83;;
55815;SDS011;41744;52.404;16.942;2023-11-19T01:55:48;51.43;;;18.60;;
55815;SDS011;41744;52.404;16.942;2023-11-19T01:58:15;62.00;;;19.53;;
55815;SDS011;41744;52.404;16.942;2023-11-19T02:00:41;61.00;;;19.10;;
55815;SDS011;41744;52.404;16.942;2023-11-19T02:03:08;48.83;;;18.60;;
55815;SDS011;41744;52.404;16.942;2023-11-19T02:05:34;52.17;;;18.03;;
55815;SDS011;41744;52.404;16.942;2023-11-19T02:08:01;53.77;;;18.90;;
55815;SDS011;41744;52.404;16.942;2023-11-19T02:10:28;55.20;;;19.63;;
55815;SDS011;41744;52.404;16.942;2023-11-19T02:12:54;57.40;;;19.03;;
55815;SDS011;41744;52.404;16.942;2023-11-19T02:15:20;56.27;;;19.10;;
55815;SDS011;41744;52.404;16.942;2023-11-19T02:17:55;53.50;;;18.77;;
55815;SDS011;41744;52.404;16.942;2023-11-19T02:20:21;54.00;;;19.27;;
55815;SDS011;41744;52.404;16.942;2023-11-19T02:22:47;56.77;;;18.80;;
55815;SDS011;41744;52.404;16.942;2023-11-19T02:25:25;55.87;;;18.77;;
55815;SDS011;41744;52.404;16.942;2023-11-19T02:27:57;60.80;;;19.30;;
55815;SDS011;41744;52.404;16.942;2023-11-19T02:30:24;52.80;;;18.00;;
55815;SDS011;41744;52.404;16.942;2023-11-19T02:32:54;57.63;;;19.67;;
55815;SDS011;41744;52.404;16.942;2023-11-19T02:35:22;56.07;;;18.57;;
55815;SDS011;41744;52.404;16.942;2023-11-19T02:37:48;50.37;;;18.10;;
55815;SDS011;41744;52.404;16.942;2023-11-19T02:40:14;52.17;;;18.10;;
55815;SDS011;41744;52.404;16.942;2023-11-19T02:42:40;54.27;;;19.93;;
55815;SDS011;41744;52.404;16.942;2023-11-19T02:45:07;55.10;;;19.67;;
55815;SDS011;41744;52.404;16.942;2023-11-19T02:47:38;60.20;;;20.37;;
55815;SDS011;41744;52.404;16.942;2023-11-19T02:50:04;54.57;;;17.97;;
55815;SDS011;41744;52.404;16.942;2023-11-19T02:52:38;60.90;;;19.97;;
55815;SDS011;41744;52.404;16.942;2023-11-19T02:55:04;56.37;;;19.93;;
55815;SDS011;41744;52.404;16.942;2023-11-19T02:57:35;56.60;;;18.70;;
55815;SDS011;41744;52.404;16.942;2023-11-19T03:00:01;64.90;;;19.63;;
55815;SDS011;41744;52.404;16.942;2023-11-19T03:02:37;60.20;;;20.63;;
55815;SDS011;41744;52.404;16.942;2023-11-19T03:05:09;59.90;;;21.33;;
55815;SDS011;41744;52.404;16.942;2023-11-19T03:07:36;65.83;;;21.77;;
55815;SDS011;41744;52.404;16.942;2023-11-19T03:10:02;61.27;;;20.17;;
55815;SDS011;41744;52.404;16.942;2023-11-19T03:12:30;63.17;;;20.70;;
55815;SDS011;41744;52.404;16.942;2023-11-19T03:14:56;59.80;;;19.87;;
55815;SDS011;41744;52.404;16.942;2023-11-19T03:17:22;60.27;;;20.00;;
55815;SDS011;41744;52.404;16.942;2023-11-19T03:19:49;60.97;;;20.03;;
55815;SDS011;41744;52.404;16.942;2023-11-19T03:22:15;63.47;;;20.77;;
55815;SDS011;41744;52.404;16.942;2023-11-19T03:24:41;55.90;;;20.13;;
55815;SDS011;41744;52.404;16.942;2023-11-19T03:27:07;58.20;;;19.83;;
55815;SDS011;41744;52.404;16.942;2023-11-19T03:29:33;56.97;;;21.07;;
55815;SDS011;41744;52.404;16.942;2023-11-19T03:31:59;58.97;;;20.77;;
55815;SDS011;41744;52.404;16.942;2023-11-19T03:34:25;65.47;;;20.90;;
55815;SDS011;41744;52.404;16.942;2023-11-19T03:36:51;54.30;;;20.23;;
55815;SDS011;41744;52.404;16.942;2023-11-19T03:39:17;59.07;;;21.53;;
55815;SDS011;41744;52.404;16.942;2023-11-19T03:41:45;62.77;;;20.67;;
55815;SDS011;41744;52.404;16.942;2023-11-19T03:44:14;57.87;;;19.87;;
55815;SDS011;41744;52.404;16.942;2023-11-19T03:46:40;64.57;;;19.53;;
55815;SDS011;41744;52.404;16.942;2023-11-19T03:49:06;55.93;;;19.47;;
55815;SDS011;41744;52.404;16.942;2023-11-19T03:51:32;60.43;;;18.47;;
55815;SDS011;41744;52.404;16.942;2023-11-19T03:53:59;57.37;;;19.90;;
55815;SDS011;41744;52.404;16.942;2023-11-19T03:56:25;58.73;;;19.80;;
55815;SDS011;41744;52.404;16.942;2023-11-19T03:58:52;58.07;;;19.23;;
55815;SDS011;41744;52.404;16.942;2023-11-19T04:01:18;56.73;;;20.10;;
55815;SDS011;41744;52.404;16.942;2023-11-19T04:03:44;55.17;;;19.93;;
55815;SDS011;41744;52.404;16.942;2023-11-19T04:06:10;51.57;;;18.30;;
55815;SDS011;41744;52.404;16.942;2023-11-19T04:08:36;61.50;;;19.70;;
55815;SDS011;41744;52.404;16.942;2023-11-19T04:11:05;54.33;;;20.17;;
55815;SDS011;41744;52.404;16.942;2023-11-19T04:13:31;52.50;;;18.83;;
55815;SDS011;41744;52.404;16.942;2023-11-19T04:15:57;54.70;;;17.23;;
55815;SDS011;41744;52.404;16.942;2023-11-19T04:18:23;48.87;;;17.20;;
55815;SDS011;41744;52.404;16.942;2023-11-19T04:20:49;51.13;;;18.37;;
55815;SDS011;41744;52.404;16.942;2023-11-19T04:23:16;52.73;;;17.47;;
55815;SDS011;41744;52.404;16.942;2023-11-19T04:25:42;46.83;;;18.07;;
55815;SDS011;41744;52.404;16.942;2023-11-19T04:28:08;50.63;;;16.83;;
55815;SDS011;41744;52.404;16.942;2023-11-19T04:30:34;50.40;;;18.93;;
55815;SDS011;41744;52.404;16.942;2023-11-19T04:33:00;47.63;;;17.23;;
55815;SDS011;41744;52.404;16.942;2023-11-19T04:35:26;53.27;;;17.10;;
55815;SDS011;41744;52.404;16.942;2023-11-19T04:37:52;50.43;;;17.70;;
55815;SDS011;41744;52.404;16.942;2023-11-19T04:40:18;50.40;;;18.40;;
55815;SDS011;41744;52.404;16.942;2023-11-19T04:42:48;52.53;;;18.10;;
55815;SDS011;41744;52.404;16.942;2023-11-19T04:45:14;45.60;;;16.17;;
55815;SDS011;41744;52.404;16.942;2023-11-19T04:47:41;51.77;;;17.10;;
55815;SDS011;41744;52.404;16.942;2023-11-19T04:50:07;48.73;;;17.07;;
55815;SDS011;41744;52.404;16.942;2023-11-19T04:52:37;51.67;;;17.27;;
55815;SDS011;41744;52.404;16.942;2023-11-19T04:55:05;53.87;;;18.20;;
55815;SDS011;41744;52.404;16.942;2023-11-19T04:57:31;53.60;;;16.93;;
55815;SDS011;41744;52.404;16.942;2023-11-19T04:59:57;47.97;;;17.10;;
55815;SDS011;41744;52.404;16.942;2023-11-19T05:02:24;53.00;;;17.10;;
55815;SDS011;41744;52.404;16.942;2023-11-19T05:04:50;49.90;;;17.30;;
55815;SDS011;41744;52.404;16.942;2023-11-19T05:07:16;47.87;;;16.07;;
55815;SDS011;41744;52.404;16.942;2023-11-19T05:09:42;47.93;;;15.80;;
55815;SDS011;41744;52.404;16.942;2023-11-19T05:12:08;48.63;;;16.97;;
55815;SDS011;41744;52.404;16.942;2023-11-19T05:14:37;48.17;;;17.23;;
55815;SDS011;41744;52.404;16.942;2023-11-19T05:17:03;53.73;;;18.13;;
55815;SDS011;41744;52.404;16.942;2023-11-19T05:19:29;55.20;;;18.03;;
55815;SDS011;41744;52.404;16.942;2023-11-19T05:21:55;56.53;;;18.07;;
55815;SDS011;41744;52.404;16.942;2023-11-19T05:24:21;49.60;;;17.00;;
55815;SDS011;41744;52.404;16.942;2023-11-19T05:26:48;49.80;;;16.90;;
55815;SDS011;41744;52.404;16.942;2023-11-19T05:29:15;48.23;;;17.07;;
55815;SDS011;41744;52.404;16.942;2023-11-19T05:31:42;47.40;;;16.60;;
55815;SDS011;41744;52.404;16.942;2023-11-19T05:34:08;52.53;;;18.33;;
55815;SDS011;41744;52.404;16.942;2023-11-19T05:36:34;49.87;;;16.73;;
55815;SDS011;41744;52.404;16.942;2023-11-19T05:39:00;46.23;;;15.57;;
55815;SDS011;41744;52.404;16.942;2023-11-19T05:41:26;48.73;;;16.40;;
55815;SDS011;41744;52.404;16.942;2023-11-19T05:43:52;40.67;;;15.77;;
55815;SDS011;41744;52.404;16.942;2023-11-19T05:46:18;39.80;;;16.40;;
55815;SDS011;41744;52.404;16.942;2023-11-19T05:48:44;43.37;;;16.10;;
55815;SDS011;41744;52.404;16.942;2023-11-19T05:51:11;49.10;;;14.77;;
55815;SDS011;41744;52.404;16.942;2023-11-19T05:53:38;40.03;;;15.10;;
55815;SDS011;41744;52.404;16.942;2023-11-19T05:56:04;46.60;;;16.23;;
55815;SDS011;41744;52.404;16.942;2023-11-19T05:58:34;40.07;;;14.50;;
55815;SDS011;41744;52.404;16.942;2023-11-19T06:01:01;42.50;;;15.17;;
55815;SDS011;41744;52.404;16.942;2023-11-19T06:03:28;42.43;;;15.13;;
55815;SDS011;41744;52.404;16.942;2023-11-19T06:05:54;41.10;;;15.73;;
55815;SDS011;41744;52.404;16.942;2023-11-19T06:08:20;42.20;;;14.80;;
55815;SDS011;41744;52.404;16.942;2023-11-19T06:10:46;42.63;;;14.87;;
55815;SDS011;41744;52.404;16.942;2023-11-19T06:13:15;51.13;;;16.37;;
55815;SDS011;41744;52.404;16.942;2023-11-19T06:15:44;41.17;;;15.53;;
55815;SDS011;41744;52.404;16.942;2023-11-19T06:18:10;42.00;;;14.90;;
55815;SDS011;41744;52.404;16.942;2023-11-19T06:20:40;40.00;;;14.43;;
55815;SDS011;41744;52.404;16.942;2023-11-19T06:23:06;44.37;;;14.83;;
55815;SDS011;41744;52.404;16.942;2023-11-19T06:25:32;37.73;;;15.23;;
55815;SDS011;41744;52.404;16.942;2023-11-19T06:28:00;36.70;;;13.03;;
55815;SDS011;41744;52.404;16.942;2023-11-19T06:30:26;47.87;;;17.03;;
55815;SDS011;41744;52.404;16.942;2023-11-19T06:32:53;49.30;;;16.87;;
55815;SDS011;41744;52.404;16.942;2023-11-19T06:35:20;49.40;;;15.67;;
55815;SDS011;41744;52.404;16.942;2023-11-19T06:37:45;39.43;;;13.60;;
55815;SDS011;41744;52.404;16.942;2023-11-19T06:40:12;46.10;;;15.57;;
55815;SDS011;41744;52.404;16.942;2023-11-19T06:42:38;48.03;;;15.60;;
55815;SDS011;41744;52.404;16.942;2023-11-19T06:45:04;42.20;;;15.33;;
55815;SDS011;41744;52.404;16.942;2023-11-19T06:47:31;45.13;;;15.63;;
55815;SDS011;41744;52.404;16.942;2023-11-19T06:49:58;39.67;;;14.33;;
55815;SDS011;41744;52.404;16.942;2023-11-19T06:52:24;46.20;;;15.53;;
55815;SDS011;41744;52.404;16.942;2023-11-19T06:54:50;45.87;;;16.73;;
55815;SDS011;41744;52.404;16.942;2023-11-19T06:57:16;42.57;;;15.73;;
55815;SDS011;41744;52.404;16.942;2023-11-19T06:59:42;36.37;;;14.37;;
55815;SDS011;41744;52.404;16.942;2023-11-19T07:02:09;39.67;;;14.37;;
55815;SDS011;41744;52.404;16.942;2023-11-19T07:04:35;45.97;;;15.80;;
55815;SDS011;41744;52.404;16.942;2023-11-19T07:07:01;43.27;;;15.47;;
55815;SDS011;41744;52.404;16.942;2023-11-19T07:09:27;40.17;;;13.43;;
55815;SDS011;41744;52.404;16.942;2023-11-19T07:11:53;41.00;;;14.17;;
55815;SDS011;41744;52.404;16.942;2023-11-19T07:14:19;37.13;;;13.83;;
55815;SDS011;41744;52.404;16.942;2023-11-19T07:16:45;42.10;;;14.50;;
55815;SDS011;41744;52.404;16.942;2023-11-19T07:19:11;35.20;;;13.87;;
55815;SDS011;41744;52.404;16.942;2023-11-19T07:21:40;36.90;;;13.40;;
55815;SDS011;41744;52.404;16.942;2023-11-19T07:24:09;34.17;;;13.20;;
55815;SDS011;41744;52.404;16.942;2023-11-19T07:26:35;33.80;;;12.77;;
55815;SDS011;41744;52.404;16.942;2023-11-19T07:29:02;36.10;;;13.63;;
55815;SDS011;41744;52.404;16.942;2023-11-19T07:31:28;38.40;;;13.93;;
55815;SDS011;41744;52.404;16.942;2023-11-19T07:33:54;41.63;;;14.33;;
55815;SDS011;41744;52.404;16.942;2023-11-19T07:36:20;35.70;;;13.97;;
55815;SDS011;41744;52.404;16.942;2023-11-19T07:38:46;36.20;;;13.17;;
55815;SDS011;41744;52.404;16.942;2023-11-19T07:41:15;33.20;;;11.63;;
55815;SDS011;41744;52.404;16.942;2023-11-19T07:43:44;30.40;;;12.23;;
55815;SDS011;41744;52.404;16.942;2023-11-19T07:46:11;32.57;;;13.30;;
55815;SDS011;41744;52.404;16.942;2023-11-19T07:48:38;32.20;;;12.20;;
55815;SDS011;41744;52.404;16.942;2023-11-19T07:51:04;35.97;;;13.27;;
55815;SDS011;41744;52.404;16.942;2023-11-19T07:53:30;30.57;;;11.33;;
55815;SDS011;41744;52.404;16.942;2023-11-19T07:55:57;33.17;;;12.87;;
55815;SDS011;41744;52.404;16.942;2023-11-19T07:58:27;32.67;;;12.33;;
55815;SDS011;41744;52.404;16.942;2023-11-19T08:00:52;33.23;;;12.37;;
55815;SDS011;41744;52.404;16.942;2023-11-19T08:03:19;33.77;;;13.03;;
55815;SDS011;41744;52.404;16.942;2023-11-19T08:05:47;34.40;;;12.50;;
55815;SDS011;41744;52.404;16.942;2023-11-19T08:08:13;32.97;;;11.97;;
55815;SDS011;41744;52.404;16.942;2023-11-19T08:10:39;31.53;;;12.10;;
55815;SDS011;41744;52.404;16.942;2023-11-19T08:13:05;34.03;;;11.93;;
55815;SDS011;41744;52.404;16.942;2023-11-19T08:15:31;29.47;;;11.87;;
55815;SDS011;41744;52.404;16.942;2023-11-19T08:17:57;35.20;;;12.90;;
55815;SDS011;41744;52.404;16.942;2023-11-19T08:20:23;35.27;;;13.23;;
55815;SDS011;41744;52.404;16.942;2023-11-19T08:22:49;35.77;;;11.67;;
55815;SDS011;41744;52.404;16.942;2023-11-19T08:25:15;29.17;;;11.33;;
55815;SDS011;41744;52.404;16.942;2023-11-19T08:27:41;34.27;;;11.73;;
55815;SDS011;41744;52.404;16.942;2023-11-19T08:30:08;32.77;;;12.33;;
55815;SDS011;41744;52.404;16.942;2023-11-19T08:32:34;28.87;;;11.23;;
55815;SDS011;41744;52.404;16.942;2023-11-19T08:35:01;26.13;;;10.40;;
55815;SDS011;41744;52.404;16.942;2023-11-19T08:37:27;32.97;;;11.80;;
55815;SDS011;41744;52.404;16.942;2023-11-19T08:39:53;32.53;;;12.37;;
55815;SDS011;41744;52.404;16.942;2023-11-19T08:42:19;34.53;;;12.27;;
55815;SDS011;41744;52.404;16.942;2023-11-19T08:44:49;32.40;;;12.17;;
55815;SDS011;41744;52.404;16.942;2023-11-19T08:47:19;33.87;;;12.10;;
55815;SDS011;41744;52.404;16.942;2023-11-19T08:49:45;30.67;;;12.60;;
55815;SDS011;41744;52.404;16.942;2023-11-19T08:52:11;34.93;;;11.63;;
55815;SDS011;41744;52.404;16.942;2023-11-19T08:54:37;33.23;;;12.73;;
55815;SDS011;41744;52.404;16.942;2023-11-19T08:57:03;30.63;;;12.13;;
55815;SDS011;41744;52.404;16.942;2023-11-19T08:59:32;29.83;;;11.60;;
55815;SDS011;41744;52.404;16.942;2023-11-19T09:01:58;33.30;;;12.03;;
55815;SDS011;41744;52.404;16.942;2023-11-19T09:04:24;33.03;;;12.57;;
55815;SDS011;41744;52.404;16.942;2023-11-19T09:06:50;31.23;;;11.70;;
55815;SDS011;41744;52.404;16.942;2023-11-19T09:09:16;29.90;;;12.57;;
55815;SDS011;41744;52.404;16.942;2023-11-19T09:11:42;33.67;;;11.80;;
55815;SDS011;41744;52.404;16.942;2023-11-19T09:14:08;34.90;;;12.23;;
55815;SDS011;41744;52.404;16.942;2023-11-19T09:16:34;35.23;;;12.03;;
55815;SDS011;41744;52.404;16.942;2023-11-19T09:19:00;38.27;;;13.27;;
55815;SDS011;41744;52.404;16.942;2023-11-19T09:21:27;32.13;;;11.07;;
55815;SDS011;41744;52.404;16.942;2023-11-19T09:23:57;28.07;;;11.63;;
55815;SDS011;41744;52.404;16.942;2023-11-19T09:26:23;34.50;;;12.27;;
55815;SDS011;41744;52.404;16.942;2023-11-19T09:28:49;35.83;;;12.40;;
55815;SDS011;41744;52.404;16.942;2023-11-19T09:31:15;33.60;;;12.10;;
55815;SDS011;41744;52.404;16.942;2023-11-19T09:33:42;36.73;;;12.70;;
55815;SDS011;41744;52.404;16.942;2023-11-19T09:36:08;32.83;;;12.50;;
55815;SDS011;41744;52.404;16.942;2023-11-19T09:38:35;32.53;;;13.17;;
55815;SDS011;41744;52.404;16.942;2023-11-19T09:41:05;36.77;;;12.40;;
55815;SDS011;41744;52.404;16.942;2023-11-19T09:43:35;34.70;;;13.03;;
55815;SDS011;41744;52.404;16.942;2023-11-19T09:46:05;35.70;;;12.77;;
55815;SDS011;41744;52.404;16.942;2023-11-19T09:48:35;36.07;;;12.93;;
55815;SDS011;41744;52.404;16.942;2023-11-19T09:51:02;41.17;;;14.67;;
55815;SDS011;41744;52.404;16.942;2023-11-19T09:53:28;36.47;;;14.20;;
55815;SDS011;41744;52.404;16.942;2023-11-19T09:55:55;33.87;;;12.20;;
55815;SDS011;41744;52.404;16.942;2023-11-19T09:58:22;34.53;;;12.83;;
55815;SDS011;41744;52.404;16.942;2023-11-19T10:00:49;34.40;;;12.50;;
55815;SDS011;41744;52.404;16.942;2023-11-19T10:03:17;31.43;;;12.43;;
55815;SDS011;41744;52.404;16.942;2023-11-19T10:05:43;36.23;;;12.53;;
55815;SDS011;41744;52.404;16.942;2023-11-19T10:08:09;30.23;;;11.93;;
55815;SDS011;41744;52.404;16.942;2023-11-19T10:10:36;33.70;;;12.43;;
55815;SDS011;41744;52.404;16.942;2023-11-19T10:13:02;31.30;;;11.97;;
55815;SDS011;41744;52.404;16.942;2023-11-19T10:15:28;28.90;;;11.87;;
55815;SDS011;41744;52.404;16.942;2023-11-19T10:17:59;32.73;;;11.97;;
55815;SDS011;41744;52.404;16.942;2023-11-19T10:20:25;32.93;;;11.77;;
55815;SDS011;41744;52.404;16.942;2023-11-19T10:22:55;24.37;;;10.37;;
55815;SDS011;41744;52.404;16.942;2023-11-19T10:25:22;27.83;;;11.40;;
55815;SDS011;41744;52.404;16.942;2023-11-19T10:27:49;28.37;;;11.97;;
55815;SDS011;41744;52.404;16.942;2023-11-19T10:30:21;24.53;;;10.00;;
55815;SDS011;41744;52.404;16.942;2023-11-19T10:35:54;28.33;;;9.87;;
55815;SDS011;41744;52.404;16.942;2023-11-19T10:38:24;20.87;;;8.87;;
55815;SDS011;41744;52.404;16.942;2023-11-19T10:40:52;24.80;;;9.63;;
55815;SDS011;41744;52.404;16.942;2023-11-19T10:43:21;24.67;;;9.83;;
55815;SDS011;41744;52.404;16.942;2023-11-19T10:45:51;23.27;;;9.17;;
55815;SDS011;41744;52.404;16.942;2023-11-19T10:48:17;27.60;;;9.70;;
55815;SDS011;41744;52.404;16.942;2023-11-19T10:50:44;25.70;;;9.63;;
55815;SDS011;41744;52.404;16.942;2023-11-19T10:53:10;22.83;;;10.30;;
55815;SDS011;41744;52.404;16.942;2023-11-19T10:55:40;27.37;;;10.33;;
55815;SDS011;41744;52.404;16.942;2023-11-19T10:58:07;29.30;;;10.40;;
55815;SDS011;41744;52.404;16.942;2023-11-19T11:03:00;19.87;;;8.83;;
55815;SDS011;41744;52.404;16.942;2023-11-19T11:05:27;22.53;;;9.63;;
55815;SDS011;41744;52.404;16.942;2023-11-19T11:07:57;22.67;;;9.30;;
55815;SDS011;41744;52.404;16.942;2023-11-19T11:10:25;25.17;;;10.57;;
55815;SDS011;41744;52.404;16.942;2023-11-19T11:12:52;25.57;;;9.80;;
55815;SDS011;41744;52.404;16.942;2023-11-19T11:15:26;26.17;;;9.90;;
55815;SDS011;41744;52.404;16.942;2023-11-19T11:17:54;27.57;;;11.07;;
55815;SDS011;41744;52.404;16.942;2023-11-19T11:20:23;29.77;;;11.10;;
55815;SDS011;41744;52.404;16.942;2023-11-19T11:28:21;26.37;;;10.93;;
55815;SDS011;41744;52.404;16.942;2023-11-19T11:36:10;25.43;;;10.57;;
55815;SDS011;41744;52.404;16.942;2023-11-19T11:38:38;23.67;;;10.30;;
55815;SDS011;41744;52.404;16.942;2023-11-19T11:41:16;29.80;;;11.43;;
55815;SDS011;41744;52.404;16.942;2023-11-19T11:48:59;26.80;;;11.60;;
55815;SDS011;41744;52.404;16.942;2023-11-19T11:54:07;32.00;;;12.03;;
55815;SDS011;41744;52.404;16.942;2023-11-19T11:56:33;31.33;;;11.57;;
55815;SDS011;41744;52.404;16.942;2023-11-19T11:59:02;28.37;;;12.43;;
55815;SDS011;41744;52.404;16.942;2023-11-19T12:01:28;29.93;;;12.07;;
55815;SDS011;41744;52.404;16.942;2023-11-19T12:03:55;31.43;;;12.80;;
55815;SDS011;41744;52.404;16.942;2023-11-19T12:06:22;30.37;;;11.77;;
55815;SDS011;41744;52.404;16.942;2023-11-19T12:08:48;34.10;;;12.77;;
55815;SDS011;41744;52.404;16.942;2023-11-19T12:11:14;35.67;;;12.83;;
55815;SDS011;41744;52.404;16.942;2023-11-19T12:13:47;30.27;;;12.10;;
55815;SDS011;41744;52.404;16.942;2023-11-19T12:16:20;34.03;;;12.13;;
55815;SDS011;41744;52.404;16.942;2023-11-19T12:18:46;31.37;;;12.27;;
55815;SDS011;41744;52.404;16.942;2023-11-19T12:21:26;33.00;;;12.93;;
55815;SDS011;41744;52.404;16.942;2023-11-19T12:23:53;33.90;;;13.53;;
55815;SDS011;41744;52.404;16.942;2023-11-19T12:26:33;34.03;;;12.67;;
55815;SDS011;41744;52.404;16.942;2023-11-19T12:28:59;31.97;;;12.40;;
55815;SDS011;41744;52.404;16.942;2023-11-19T12:31:26;32.83;;;12.53;;
55815;SDS011;41744;52.404;16.942;2023-11-19T12:33:52;33.90;;;12.27;;
55815;SDS011;41744;52.404;16.942;2023-11-19T12:36:18;35.13;;;13.00;;
55815;SDS011;41744;52.404;16.942;2023-11-19T12:38:44;35.50;;;12.90;;
55815;SDS011;41744;52.404;16.942;2023-11-19T12:41:11;37.30;;;14.00;;
55815;SDS011;41744;52.404;16.942;2023-11-19T12:43:38;33.60;;;12.97;;
55815;SDS011;41744;52.404;16.942;2023-11-19T12:48:44;32.30;;;12.30;;
55815;SDS011;41744;52.404;16.942;2023-11-19T12:51:10;27.33;;;11.70;;
55815;SDS011;41744;52.404;16.942;2023-11-19T12:53:49;34.40;;;13.13;;
55815;SDS011;41744;52.404;16.942;2023-11-19T12:56:15;27.47;;;11.37;;
55815;SDS011;41744;52.404;16.942;2023-11-19T12:58:42;29.30;;;12.43;;
55815;SDS011;41744;52.404;16.942;2023-11-19T13:01:08;30.47;;;12.17;;
55815;SDS011;41744;52.404;16.942;2023-11-19T13:03:38;34.97;;;12.93;;
55815;SDS011;41744;52.404;16.942;2023-11-19T13:06:04;28.67;;;11.40;;
55815;SDS011;41744;52.404;16.942;2023-11-19T13:08:51;31.70;;;12.57;;
55815;SDS011;41744;52.404;16.942;2023-11-19T13:11:32;27.67;;;11.43;;
55815;SDS011;41744;52.404;16.942;2023-11-19T13:13:59;28.40;;;11.37;;
55815;SDS011;41744;52.404;16.942;2023-11-19T13:16:26;28.90;;;11.73;;
55815;SDS011;41744;52.404;16.942;2023-11-19T13:18:52;30.27;;;11.93;;
55815;SDS011;41744;52.404;16.942;2023-11-19T13:21:18;30.27;;;11.87;;
55815;SDS011;41744;52.404;16.942;2023-11-19T13:23:44;29.07;;;12.20;;
55815;SDS011;41744;52.404;16.942;2023-11-19T13:26:11;32.27;;;12.40;;
55815;SDS011;41744;52.404;16.942;2023-11-19T13:28:37;29.57;;;11.50;;
55815;SDS011;41744;52.404;16.942;2023-11-19T13:31:03;31.10;;;12.47;;
55815;SDS011;41744;52.404;16.942;2023-11-19T13:33:30;30.27;;;12.27;;
55815;SDS011;41744;52.404;16.942;2023-11-19T13:35:56;29.53;;;12.27;;
55815;SDS011;41744;52.404;16.942;2023-11-19T13:38:22;29.77;;;11.83;;
55815;SDS011;41744;52.404;16.942;2023-11-19T13:40:49;30.90;;;11.77;;
55815;SDS011;41744;52.404;16.942;2023-11-19T13:43:16;32.97;;;12.10;;
55815;SDS011;41744;52.404;16.942;2023-11-19T13:45:42;27.43;;;11.43;;
55815;SDS011;41744;52.404;16.942;2023-11-19T13:48:08;33.70;;;13.27;;
55815;SDS011;41744;52.404;16.942;2023-11-19T13:50:34;31.03;;;12.73;;
55815;SDS011;41744;52.404;16.942;2023-11-19T13:53:00;33.57;;;12.93;;
55815;SDS011;41744;52.404;16.942;2023-11-19T13:55:26;31.23;;;12.67;;
55815;SDS011;41744;52.404;16.942;2023-11-19T13:57:52;34.30;;;13.70;;
55815;SDS011;41744;52.404;16.942;2023-11-19T14:00:18;33.30;;;13.10;;
55815;SDS011;41744;52.404;16.942;2023-11-19T14:02:45;36.10;;;13.20;;
55815;SDS011;41744;52.404;16.942;2023-11-19T14:05:13;37.20;;;13.67;;
55815;SDS011;41744;52.404;16.942;2023-11-19T14:07:40;31.60;;;13.63;;
55815;SDS011;41744;52.404;16.942;2023-11-19T14:10:07;33.53;;;12.67;;
55815;SDS011;41744;52.404;16.942;2023-11-19T14:12:36;31.47;;;11.97;;
55815;SDS011;41744;52.404;16.942;2023-11-19T14:15:06;35.03;;;12.43;;
55815;SDS011;41744;52.404;16.942;2023-11-19T14:17:32;32.07;;;12.20;;
55815;SDS011;41744;52.404;16.942;2023-11-19T14:19:59;32.50;;;13.03;;
55815;SDS011;41744;52.404;16.942;2023-11-19T14:22:25;35.30;;;11.90;;
55815;SDS011;41744;52.404;16.942;2023-11-19T14:24:52;33.27;;;12.97;;
55815;SDS011;41744;52.404;16.942;2023-11-19T14:27:18;34.50;;;12.50;;
55815;SDS011;41744;52.404;16.942;2023-11-19T14:29:44;26.53;;;11.07;;
55815;SDS011;41744;52.404;16.942;2023-11-19T14:32:11;30.53;;;12.40;;
55815;SDS011;41744;52.404;16.942;2023-11-19T14:34:37;30.33;;;12.20;;
55815;SDS011;41744;52.404;16.942;2023-11-19T14:37:03;33.93;;;12.67;;